createdAt,value
2019-03-18T00:04:32.771Z,1.65
2019-03-18T00:09:41.852Z,1.47
2019-03-18T00:15:00.677Z,1.48
2019-03-18T00:19:59.575Z,1.91
2019-03-18T00:25:08.775Z,1.86
2019-03-18T00:30:17.875Z,1.65
2019-03-18T00:35:26.966Z,1.44
2019-03-18T00:40:36.030Z,2.06
2019-03-18T00:45:45.208Z,1.77
2019-03-18T00:50:54.293Z,1.82
2019-03-18T00:56:04.166Z,1.77
2019-03-18T01:01:13.222Z,1.50
2019-03-18T01:06:22.343Z,1.58
2019-03-18T01:11:31.418Z,2.03
2019-03-18T01:16:40.552Z,1.58
2019-03-18T01:21:49.736Z,1.76
2019-03-18T01:26:58.973Z,1.97
2019-03-18T01:32:08.062Z,1.64
2019-03-18T01:37:17.173Z,1.71
2019-03-18T01:42:26.238Z,1.44
2019-03-18T01:47:35.357Z,1.66
2019-03-18T01:52:44.433Z,1.55
2019-03-18T01:57:53.560Z,1.97
2019-03-18T02:03:03.018Z,1.59
2019-03-18T02:08:12.323Z,1.84
2019-03-18T02:13:21.382Z,1.47
2019-03-18T02:18:30.552Z,1.73
2019-03-18T02:23:39.618Z,1.71
2019-03-18T02:28:48.722Z,1.76
2019-03-18T02:33:57.784Z,1.40
2019-03-18T02:39:06.927Z,1.80
2019-03-18T02:44:16.319Z,1.54
2019-03-18T02:49:25.785Z,1.83
2019-03-18T02:54:34.915Z,1.48
2019-03-18T02:59:43.974Z,1.35
2019-03-18T03:04:53.003Z,1.87
2019-03-18T03:10:02.198Z,1.60
2019-03-18T03:15:11.247Z,1.63
2019-03-18T03:20:20.452Z,1.56
2019-03-18T03:25:29.474Z,1.47
2019-03-18T03:30:38.602Z,1.54
2019-03-18T03:35:47.653Z,1.97
2019-03-18T03:40:56.719Z,1.44
2019-03-18T03:46:05.839Z,1.66
2019-03-18T03:51:14.963Z,1.69
2019-03-18T03:56:24.194Z,1.63
2019-03-18T04:01:33.623Z,1.62
2019-03-18T04:06:42.678Z,1.67
2019-03-18T04:11:51.801Z,1.83
2019-03-18T04:17:02.276Z,1.93
2019-03-18T04:22:09.519Z,1.70
2019-03-18T04:27:18.567Z,1.60
2019-03-18T04:32:27.699Z,1.61
2019-03-18T04:37:36.760Z,1.61
2019-03-18T04:42:46.022Z,1.95
2019-03-18T04:47:55.075Z,1.87
2019-03-18T04:53:04.206Z,1.75
2019-03-18T04:58:13.266Z,2.19
2019-03-18T05:03:22.422Z,1.58
2019-03-18T05:08:31.515Z,1.78
2019-03-18T05:13:40.688Z,1.99
2019-03-18T05:18:49.712Z,2.58
2019-03-18T05:23:58.886Z,1.89
2019-03-18T05:29:07.954Z,2.24
2019-03-18T05:34:17.105Z,2.13
2019-03-18T05:39:26.128Z,1.91
2019-03-18T05:44:35.266Z,2.11
2019-03-18T05:49:44.517Z,1.48
2019-03-18T05:54:53.682Z,2.01
2019-03-18T06:00:02.767Z,1.50
2019-03-18T06:05:11.895Z,1.54
2019-03-18T06:10:20.969Z,1.77
2019-03-18T06:15:30.137Z,1.39
2019-03-18T06:20:39.194Z,1.38
2019-03-18T06:25:48.342Z,1.16
2019-03-18T06:30:57.371Z,1.51
2019-03-18T06:36:06.686Z,1.21
2019-03-18T06:41:15.830Z,1.68
2019-03-18T06:46:24.972Z,1.24
2019-03-18T06:51:34.045Z,1.32
2019-03-18T06:56:43.217Z,1.64
2019-03-18T07:01:52.302Z,1.35
2019-03-18T07:07:01.509Z,1.36
2019-03-18T07:12:10.578Z,1.29
2019-03-18T07:17:19.691Z,1.16
2019-03-18T07:22:28.754Z,1.37
2019-03-18T07:27:37.910Z,1.27
2019-03-18T07:32:47.155Z,1.58
2019-03-18T07:37:56.288Z,1.64
2019-03-18T07:43:05.366Z,1.34
2019-03-18T07:48:14.490Z,1.41
2019-03-18T07:53:23.574Z,1.49
2019-03-18T07:58:33.116Z,1.60
2019-03-18T08:03:42.198Z,1.72
2019-03-18T08:08:53.465Z,1.28
2019-03-18T08:14:00.043Z,1.37
2019-03-18T08:19:09.254Z,1.44
2019-03-18T08:24:18.354Z,1.38
2019-03-18T08:29:27.539Z,1.49
2019-03-18T08:34:36.636Z,1.09
2019-03-18T08:39:45.768Z,1.26
2019-03-18T08:44:54.826Z,0.97
2019-03-18T08:50:03.954Z,1.05
2019-03-18T08:55:13.108Z,0.89
2019-03-18T09:00:22.145Z,0.99
2019-03-18T09:05:31.260Z,1.37
2019-03-18T09:10:40.367Z,0.71
2019-03-18T09:15:49.578Z,1.22
2019-03-18T09:20:58.786Z,1.23
2019-03-18T09:26:07.835Z,1.33
2019-03-18T09:31:17.268Z,1.46
2019-03-18T09:36:26.218Z,1.29
2019-03-18T09:41:35.394Z,1.44
2019-03-18T09:46:44.453Z,1.07
2019-03-18T09:51:53.565Z,1.15
2019-03-18T09:57:02.649Z,1.18
2019-03-18T10:02:11.785Z,1.23
2019-03-18T10:07:20.855Z,1.18
2019-03-18T10:12:29.970Z,1.14
2019-03-18T10:17:38.994Z,1.26
2019-03-18T10:22:48.078Z,1.09
2019-03-18T10:27:57.086Z,1.25
2019-03-18T10:33:06.199Z,1.08
2019-03-18T10:38:15.268Z,0.87
2019-03-18T10:43:24.369Z,1.14
2019-03-18T10:48:33.451Z,0.95
2019-03-18T10:53:44.509Z,0.56
2019-03-18T10:58:51.246Z,0.68
2019-03-18T11:04:00.471Z,0.60
2019-03-18T11:09:09.482Z,0.42
2019-03-18T11:14:18.622Z,0.48
2019-03-18T11:19:27.705Z,0.39
2019-03-18T11:24:36.950Z,0.28
2019-03-18T11:29:46.232Z,0.44
2019-03-18T11:34:55.355Z,0.41
2019-03-18T11:40:04.907Z,0.43
2019-03-18T11:45:14.015Z,0.52
2019-03-18T11:50:23.094Z,0.43
2019-03-18T11:55:32.238Z,0.42
2019-03-18T12:00:41.344Z,0.65
2019-03-18T12:05:50.590Z,0.71
2019-03-18T12:10:59.666Z,1.36
2019-03-18T12:16:08.812Z,0.91
2019-03-18T12:21:17.900Z,0.88
2019-03-18T12:26:27.150Z,0.71
2019-03-18T12:31:36.241Z,0.37
2019-03-18T12:36:45.432Z,0.34
2019-03-18T12:41:54.455Z,0.40
2019-03-18T12:47:02.126Z,0.26
2019-03-18T12:52:11.203Z,0.37
2019-03-18T12:57:20.410Z,0.34
2019-03-18T13:02:29.458Z,4.98
2019-03-18T13:07:38.567Z,1.16
2019-03-18T13:12:47.657Z,0.23
2019-03-18T13:17:56.931Z,0.55
2019-03-18T13:23:04.786Z,0.61
2019-03-18T13:28:14.046Z,0.49
2019-03-18T13:33:23.093Z,1.05
2019-03-18T13:38:32.314Z,0.45
2019-03-18T13:43:41.411Z,0.53
2019-03-18T13:48:50.635Z,0.47
2019-03-18T13:53:59.731Z,0.42
2019-03-18T13:59:08.825Z,0.47
2019-03-18T14:04:17.854Z,0.18
2019-03-18T14:09:27.103Z,0.21
2019-03-18T14:14:36.156Z,0.22
2019-03-18T14:19:45.256Z,0.20
2019-03-18T14:24:54.286Z,0.28
2019-03-18T14:30:03.402Z,0.25
2019-03-18T14:35:12.448Z,0.65
2019-03-18T14:40:21.865Z,1.09
2019-03-18T14:45:30.914Z,0.36
2019-03-18T14:50:40.074Z,1.28
2019-03-18T14:55:49.180Z,1.02
2019-03-18T15:00:58.337Z,0.87
2019-03-18T15:06:07.531Z,0.62
2019-03-18T15:11:16.640Z,0.36
2019-03-18T15:16:25.695Z,0.30
2019-03-18T15:21:34.837Z,0.41
2019-03-18T15:26:43.927Z,0.37
2019-03-18T15:31:53.081Z,0.32
2019-03-18T15:37:02.176Z,0.76
2019-03-18T15:42:11.878Z,0.15
2019-03-18T15:47:20.906Z,0.19
2019-03-18T15:52:30.103Z,0.12
2019-03-18T15:57:39.118Z,0.21
2019-03-18T16:02:48.331Z,0.11
2019-03-18T16:07:57.438Z,0.23
2019-03-18T16:13:12.518Z,1.23
2019-03-18T16:18:11.501Z,0.49
2019-03-18T16:23:20.631Z,2.87
2019-03-18T16:28:29.689Z,0.42
2019-03-18T16:33:38.854Z,0.53
2019-03-18T16:38:48.035Z,0.32
2019-03-18T16:43:57.152Z,0.45
2019-03-18T16:49:06.862Z,0.14
2019-03-18T16:54:15.990Z,0.32
2019-03-18T16:59:25.031Z,0.18
2019-03-18T17:04:34.152Z,0.21
2019-03-18T17:09:43.218Z,0.18
2019-03-18T17:14:52.335Z,0.24
2019-03-18T17:20:01.351Z,0.11
2019-03-18T17:25:10.516Z,0.12
2019-03-18T17:30:19.613Z,0.16
2019-03-18T17:35:28.745Z,0.16
2019-03-18T17:40:37.849Z,0.28
2019-03-18T17:45:46.962Z,0.16
2019-03-18T17:50:56.013Z,0.13
2019-03-18T17:56:05.139Z,0.14
2019-03-18T18:01:14.192Z,0.13
2019-03-18T18:06:23.360Z,0.09
2019-03-18T18:11:32.420Z,0.12
2019-03-18T18:16:41.594Z,0.11
2019-03-18T18:21:50.815Z,0.21
2019-03-18T18:26:59.937Z,0.15
2019-03-18T18:32:08.992Z,0.17
2019-03-18T18:37:18.195Z,0.23
2019-03-18T18:42:27.351Z,0.12
2019-03-18T18:47:36.603Z,0.14
2019-03-18T18:52:45.830Z,0.18
2019-03-18T18:57:54.988Z,0.09
2019-03-18T19:03:04.022Z,0.11
2019-03-18T19:08:13.399Z,0.10
2019-03-18T19:13:22.446Z,0.11
2019-03-18T19:18:37.592Z,0.17
2019-03-18T19:23:40.215Z,0.05
2019-03-18T19:28:49.524Z,0.09
2019-03-18T19:33:58.606Z,0.13
2019-03-18T19:39:08.236Z,0.19
2019-03-18T19:44:17.293Z,0.26
2019-03-18T19:49:26.501Z,0.52
2019-03-18T19:54:35.551Z,0.39
2019-03-18T19:59:45.035Z,0.46
2019-03-18T20:04:54.122Z,0.70
2019-03-18T20:10:03.330Z,0.74
2019-03-18T20:15:12.441Z,0.69
2019-03-18T20:20:21.482Z,1.04
2019-03-18T20:25:30.510Z,0.75
2019-03-18T20:30:39.713Z,0.84
2019-03-18T20:35:48.809Z,1.10
2019-03-18T20:40:57.950Z,1.14
2019-03-18T20:46:06.998Z,1.12
2019-03-18T20:51:16.168Z,1.34
2019-03-18T20:56:25.236Z,1.27
2019-03-18T21:01:34.384Z,0.88
2019-03-18T21:06:43.475Z,1.37
2019-03-18T21:11:52.669Z,0.95
2019-03-18T21:17:01.765Z,1.35
2019-03-18T21:22:10.912Z,1.10
2019-03-18T21:27:19.973Z,1.33
2019-03-18T21:32:29.083Z,0.82
2019-03-18T21:37:38.150Z,1.21
2019-03-18T21:42:47.266Z,0.89
2019-03-18T21:47:56.300Z,1.22
2019-03-18T21:53:05.507Z,0.95
2019-03-18T21:58:14.608Z,1.12
2019-03-18T22:03:23.706Z,0.83
2019-03-18T22:08:32.768Z,0.86
2019-03-18T22:13:41.885Z,1.14
2019-03-18T22:18:50.944Z,1.06
2019-03-18T22:24:00.078Z,1.16
2019-03-18T22:29:09.119Z,0.97
2019-03-18T22:34:18.284Z,1.13
2019-03-18T22:39:27.499Z,1.47
2019-03-18T22:44:36.922Z,1.52
2019-03-18T22:49:46.020Z,1.21
2019-03-18T22:54:56.063Z,1.19
2019-03-18T23:00:03.829Z,1.29
2019-03-18T23:05:12.990Z,1.08
2019-03-18T23:10:22.083Z,1.23
2019-03-18T23:15:33.662Z,1.32
2019-03-18T23:20:32.674Z,1.40
2019-03-18T23:25:41.852Z,1.40
2019-03-18T23:30:50.914Z,1.34
2019-03-18T23:36:00.054Z,1.62
2019-03-18T23:41:09.119Z,2.24
2019-03-18T23:46:18.227Z,1.83
2019-03-18T23:51:27.346Z,1.60
2019-03-18T23:56:36.511Z,1.46
